sensor_id;sensor_type;location;lat;lon;timestamp;temperature;humidity
71436;SHT31;59251;51.326;12.370;2022-10-04T00:01:04;13.01;86.93
71436;SHT31;59251;51.326;12.370;2022-10-04T00:03:36;12.96;87.13
71436;SHT31;59251;51.326;12.370;2022-10-04T00:06:14;12.96;86.84
71436;SHT31;59251;51.326;12.370;2022-10-04T00:11:23;12.85;87.13
71436;SHT31;59251;51.326;12.370;2022-10-04T00:13:58;12.71;87.66
71436;SHT31;59251;51.326;12.370;2022-10-04T00:16:36;12.74;87.68
71436;SHT31;59251;51.326;12.370;2022-10-04T00:19:21;12.77;87.53
71436;SHT31;59251;51.326;12.370;2022-10-04T00:24:25;12.61;87.87
71436;SHT31;59251;51.326;12.370;2022-10-04T00:29:28;12.45;88.45
71436;SHT31;59251;51.326;12.370;2022-10-04T00:34:44;12.54;88.43
71436;SHT31;59251;51.326;12.370;2022-10-04T00:37:16;12.57;88.48
71436;SHT31;59251;51.326;12.370;2022-10-04T00:39:43;12.62;88.24
71436;SHT31;59251;51.326;12.370;2022-10-04T00:44:52;12.45;89.05
71436;SHT31;59251;51.326;12.370;2022-10-04T00:49:45;12.53;88.96
71436;SHT31;59251;51.326;12.370;2022-10-04T00:52:18;12.55;88.85
71436;SHT31;59251;51.326;12.370;2022-10-04T00:54:55;12.47;89.20
71436;SHT31;59251;51.326;12.370;2022-10-04T00:57:38;12.38;89.50
71436;SHT31;59251;51.326;12.370;2022-10-04T01:00:10;12.65;88.68
71436;SHT31;59251;51.326;12.370;2022-10-04T01:02:50;12.65;88.61
71436;SHT31;59251;51.326;12.370;2022-10-04T01:05:21;12.34;89.50
71436;SHT31;59251;51.326;12.370;2022-10-04T01:08:07;12.50;89.12
71436;SHT31;59251;51.326;12.370;2022-10-04T01:10:54;12.23;90.06
71436;SHT31;59251;51.326;12.370;2022-10-04T01:23:42;12.24;90.58
71436;SHT31;59251;51.326;12.370;2022-10-04T01:31:27;12.36;89.70
71436;SHT31;59251;51.326;12.370;2022-10-04T01:33:54;12.44;89.47
71436;SHT31;59251;51.326;12.370;2022-10-04T01:36:19;12.44;89.30
71436;SHT31;59251;51.326;12.370;2022-10-04T01:38:46;12.41;89.35
71436;SHT31;59251;51.326;12.370;2022-10-04T01:41:13;12.43;89.39
71436;SHT31;59251;51.326;12.370;2022-10-04T01:43:42;12.23;89.68
71436;SHT31;59251;51.326;12.370;2022-10-04T01:46:22;12.45;89.11
71436;SHT31;59251;51.326;12.370;2022-10-04T01:48:50;12.34;89.73
71436;SHT31;59251;51.326;12.370;2022-10-04T01:51:30;12.43;89.23
71436;SHT31;59251;51.326;12.370;2022-10-04T01:54:13;12.45;88.84
71436;SHT31;59251;51.326;12.370;2022-10-04T01:59:22;12.41;88.98
71436;SHT31;59251;51.326;12.370;2022-10-04T02:02:01;12.41;88.84
71436;SHT31;59251;51.326;12.370;2022-10-04T02:04:32;12.40;88.81
71436;SHT31;59251;51.326;12.370;2022-10-04T02:06:59;12.44;88.49
71436;SHT31;59251;51.326;12.370;2022-10-04T02:09:30;12.37;88.76
71436;SHT31;59251;51.326;12.370;2022-10-04T02:11:58;12.34;88.81
71436;SHT31;59251;51.326;12.370;2022-10-04T02:14:28;12.34;89.03
71436;SHT31;59251;51.326;12.370;2022-10-04T02:16:57;12.12;89.94
71436;SHT31;59251;51.326;12.370;2022-10-04T02:19:26;11.97;90.44
71436;SHT31;59251;51.326;12.370;2022-10-04T02:21:55;11.76;90.86
71436;SHT31;59251;51.326;12.370;2022-10-04T02:24:21;11.95;90.26
71436;SHT31;59251;51.326;12.370;2022-10-04T02:26:51;12.05;89.60
71436;SHT31;59251;51.326;12.370;2022-10-04T02:29:20;11.82;90.74
71436;SHT31;59251;51.326;12.370;2022-10-04T02:31:47;11.93;89.92
71436;SHT31;59251;51.326;12.370;2022-10-04T02:34:31;11.72;90.38
71436;SHT31;59251;51.326;12.370;2022-10-04T02:37:00;11.58;90.84
71436;SHT31;59251;51.326;12.370;2022-10-04T02:39:32;11.69;90.64
71436;SHT31;59251;51.326;12.370;2022-10-04T02:42:12;11.48;91.04
71436;SHT31;59251;51.326;12.370;2022-10-04T02:45:07;11.39;91.38
71436;SHT31;59251;51.326;12.370;2022-10-04T02:47:51;11.51;90.70
71436;SHT31;59251;51.326;12.370;2022-10-04T02:50:29;11.20;91.58
71436;SHT31;59251;51.326;12.370;2022-10-04T02:53:00;11.16;92.27
71436;SHT31;59251;51.326;12.370;2022-10-04T02:55:34;10.89;93.04
71436;SHT31;59251;51.326;12.370;2022-10-04T02:58:00;11.06;92.31
71436;SHT31;59251;51.326;12.370;2022-10-04T03:00:30;11.17;91.90
71436;SHT31;59251;51.326;12.370;2022-10-04T03:03:28;11.07;91.74
71436;SHT31;59251;51.326;12.370;2022-10-04T03:06:07;11.11;91.51
71436;SHT31;59251;51.326;12.370;2022-10-04T03:08:52;11.13;91.31
71436;SHT31;59251;51.326;12.370;2022-10-04T03:11:20;10.96;91.73
71436;SHT31;59251;51.326;12.370;2022-10-04T03:13:50;11.01;91.53
71436;SHT31;59251;51.326;12.370;2022-10-04T03:16:16;11.01;91.81
71436;SHT31;59251;51.326;12.370;2022-10-04T03:18:43;10.86;92.06
71436;SHT31;59251;51.326;12.370;2022-10-04T03:21:12;10.66;92.74
71436;SHT31;59251;51.326;12.370;2022-10-04T03:23:39;10.89;91.59
71436;SHT31;59251;51.326;12.370;2022-10-04T03:28:45;10.68;92.08
71436;SHT31;59251;51.326;12.370;2022-10-04T03:31:12;10.80;91.79
71436;SHT31;59251;51.326;12.370;2022-10-04T03:33:39;10.82;91.75
71436;SHT31;59251;51.326;12.370;2022-10-04T03:36:05;10.84;91.55
71436;SHT31;59251;51.326;12.370;2022-10-04T03:38:33;10.88;91.40
71436;SHT31;59251;51.326;12.370;2022-10-04T03:41:00;10.88;91.28
71436;SHT31;59251;51.326;12.370;2022-10-04T03:43:28;10.88;91.26
71436;SHT31;59251;51.326;12.370;2022-10-04T03:45:59;10.89;91.12
71436;SHT31;59251;51.326;12.370;2022-10-04T03:48:34;10.82;91.11
71436;SHT31;59251;51.326;12.370;2022-10-04T03:51:03;10.76;91.51
71436;SHT31;59251;51.326;12.370;2022-10-04T03:53:33;10.73;91.32
71436;SHT31;59251;51.326;12.370;2022-10-04T03:56:01;10.70;91.38
71436;SHT31;59251;51.326;12.370;2022-10-04T03:58:29;10.49;92.22
71436;SHT31;59251;51.326;12.370;2022-10-04T04:01:25;10.38;92.83
71436;SHT31;59251;51.326;12.370;2022-10-04T04:06:51;10.35;92.53
71436;SHT31;59251;51.326;12.370;2022-10-04T04:09:44;10.35;92.63
71436;SHT31;59251;51.326;12.370;2022-10-04T04:12:38;10.45;92.32
71436;SHT31;59251;51.326;12.370;2022-10-04T04:15:11;10.44;92.27
71436;SHT31;59251;51.326;12.370;2022-10-04T04:17:39;10.32;92.57
71436;SHT31;59251;51.326;12.370;2022-10-04T04:20:14;10.35;92.24
71436;SHT31;59251;51.326;12.370;2022-10-04T04:22:43;10.30;92.61
71436;SHT31;59251;51.326;12.370;2022-10-04T04:25:15;10.24;92.68
71436;SHT31;59251;51.326;12.370;2022-10-04T04:27:42;10.17;92.97
71436;SHT31;59251;51.326;12.370;2022-10-04T04:30:15;9.97;94.11
71436;SHT31;59251;51.326;12.370;2022-10-04T04:32:46;10.08;93.72
71436;SHT31;59251;51.326;12.370;2022-10-04T04:35:31;10.18;93.16
71436;SHT31;59251;51.326;12.370;2022-10-04T04:38:18;10.18;93.22
71436;SHT31;59251;51.326;12.370;2022-10-04T04:40:45;10.08;93.73
71436;SHT31;59251;51.326;12.370;2022-10-04T04:43:16;9.97;94.15
71436;SHT31;59251;51.326;12.370;2022-10-04T04:45:44;10.25;92.64
71436;SHT31;59251;51.326;12.370;2022-10-04T04:48:12;10.31;92.55
71436;SHT31;59251;51.326;12.370;2022-10-04T04:50:39;10.31;92.37
71436;SHT31;59251;51.326;12.370;2022-10-04T04:53:18;10.34;92.62
71436;SHT31;59251;51.326;12.370;2022-10-04T04:55:57;10.34;92.38
71436;SHT31;59251;51.326;12.370;2022-10-04T04:58:26;10.22;92.51
71436;SHT31;59251;51.326;12.370;2022-10-04T05:01:00;10.14;93.26
71436;SHT31;59251;51.326;12.370;2022-10-04T05:03:26;10.25;92.96
71436;SHT31;59251;51.326;12.370;2022-10-04T05:05:54;10.38;92.34
71436;SHT31;59251;51.326;12.370;2022-10-04T05:08:25;10.37;92.21
71436;SHT31;59251;51.326;12.370;2022-10-04T05:11:21;10.34;92.78
71436;SHT31;59251;51.326;12.370;2022-10-04T05:13:55;10.37;92.26
71436;SHT31;59251;51.326;12.370;2022-10-04T05:16:22;10.30;93.00
71436;SHT31;59251;51.326;12.370;2022-10-04T05:19:01;10.48;91.78
71436;SHT31;59251;51.326;12.370;2022-10-04T05:21:29;10.30;92.27
71436;SHT31;59251;51.326;12.370;2022-10-04T05:23:57;10.48;91.87
71436;SHT31;59251;51.326;12.370;2022-10-04T05:26:25;10.22;92.59
71436;SHT31;59251;51.326;12.370;2022-10-04T05:28:52;10.49;91.82
71436;SHT31;59251;51.326;12.370;2022-10-04T05:31:40;10.40;92.70
71436;SHT31;59251;51.326;12.370;2022-10-04T05:34:23;10.63;91.47
71436;SHT31;59251;51.326;12.370;2022-10-04T05:39:21;10.35;92.37
71436;SHT31;59251;51.326;12.370;2022-10-04T05:44:25;10.76;91.23
71436;SHT31;59251;51.326;12.370;2022-10-04T05:46:56;10.75;91.56
71436;SHT31;59251;51.326;12.370;2022-10-04T05:49:25;10.83;90.37
71436;SHT31;59251;51.326;12.370;2022-10-04T05:51:59;10.90;90.44
71436;SHT31;59251;51.326;12.370;2022-10-04T05:54:27;10.83;90.95
71436;SHT31;59251;51.326;12.370;2022-10-04T06:05:27;10.79;90.93
71436;SHT31;59251;51.326;12.370;2022-10-04T06:11:19;10.97;90.37
71436;SHT31;59251;51.326;12.370;2022-10-04T06:19:16;11.23;89.51
71436;SHT31;59251;51.326;12.370;2022-10-04T06:24:28;11.17;90.19
71436;SHT31;59251;51.326;12.370;2022-10-04T06:27:43;11.42;89.36
71436;SHT31;59251;51.326;12.370;2022-10-04T06:30:06;11.55;88.69
71436;SHT31;59251;51.326;12.370;2022-10-04T06:41:10;11.66;88.74
71436;SHT31;59251;51.326;12.370;2022-10-04T06:46:45;11.64;88.30
71436;SHT31;59251;51.326;12.370;2022-10-04T07:00:23;12.34;86.41
71436;SHT31;59251;51.326;12.370;2022-10-04T07:05:38;12.62;85.38
71436;SHT31;59251;51.326;12.370;2022-10-04T07:08:36;12.34;86.29
71436;SHT31;59251;51.326;12.370;2022-10-04T07:21:38;12.98;84.08
71436;SHT31;59251;51.326;12.370;2022-10-04T07:24:08;12.62;85.58
71436;SHT31;59251;51.326;12.370;2022-10-04T07:26:38;12.74;85.72
71436;SHT31;59251;51.326;12.370;2022-10-04T07:29:15;13.13;84.14
71436;SHT31;59251;51.326;12.370;2022-10-04T07:34:44;13.49;83.29
71436;SHT31;59251;51.326;12.370;2022-10-04T07:37:12;12.93;84.53
71436;SHT31;59251;51.326;12.370;2022-10-04T07:45:26;13.49;83.45
71436;SHT31;59251;51.326;12.370;2022-10-04T07:48:18;13.81;82.46
71436;SHT31;59251;51.326;12.370;2022-10-04T07:53:52;14.19;81.16
71436;SHT31;59251;51.326;12.370;2022-10-04T07:59:28;13.67;82.32
71436;SHT31;59251;51.326;12.370;2022-10-04T08:01:59;14.21;81.09
71436;SHT31;59251;51.326;12.370;2022-10-04T08:07:16;14.16;80.48
71436;SHT31;59251;51.326;12.370;2022-10-04T08:10:04;13.81;81.69
71436;SHT31;59251;51.326;12.370;2022-10-04T08:13:25;14.32;80.69
71436;SHT31;59251;51.326;12.370;2022-10-04T08:15:42;14.80;79.09
71436;SHT31;59251;51.326;12.370;2022-10-04T08:28:46;14.16;80.74
71436;SHT31;59251;51.326;12.370;2022-10-04T08:32:03;13.97;81.83
71436;SHT31;59251;51.326;12.370;2022-10-04T08:56:41;14.66;78.54
71436;SHT31;59251;51.326;12.370;2022-10-04T08:59:14;15.04;78.45
71436;SHT31;59251;51.326;12.370;2022-10-04T09:01:56;14.80;78.06
71436;SHT31;59251;51.326;12.370;2022-10-04T09:04:51;15.05;78.53
71436;SHT31;59251;51.326;12.370;2022-10-04T09:16:47;15.25;76.98
71436;SHT31;59251;51.326;12.370;2022-10-04T09:22:00;15.04;78.20
71436;SHT31;59251;51.326;12.370;2022-10-04T09:30:19;15.48;76.24
71436;SHT31;59251;51.326;12.370;2022-10-04T09:50:09;15.41;76.43
71436;SHT31;59251;51.326;12.370;2022-10-04T09:53:09;15.24;76.72
71436;SHT31;59251;51.326;12.370;2022-10-04T09:56:13;15.70;75.67
71436;SHT31;59251;51.326;12.370;2022-10-04T09:59:03;15.80;75.75
71436;SHT31;59251;51.326;12.370;2022-10-04T10:02:05;15.63;76.66
71436;SHT31;59251;51.326;12.370;2022-10-04T10:16:03;15.93;73.88
71436;SHT31;59251;51.326;12.370;2022-10-04T10:21:30;16.13;73.52
71436;SHT31;59251;51.326;12.370;2022-10-04T10:32:37;16.06;74.25
71436;SHT31;59251;51.326;12.370;2022-10-04T10:43:28;16.22;72.04
71436;SHT31;59251;51.326;12.370;2022-10-04T10:56:54;16.58;69.20
71436;SHT31;59251;51.326;12.370;2022-10-04T11:00:23;16.48;69.86
71436;SHT31;59251;51.326;12.370;2022-10-04T11:02:49;16.66;68.05
71436;SHT31;59251;51.326;12.370;2022-10-04T11:29:34;17.95;64.90
71436;SHT31;59251;51.326;12.370;2022-10-04T11:32:12;17.78;65.21
71436;SHT31;59251;51.326;12.370;2022-10-04T11:54:09;19.60;58.37
71436;SHT31;59251;51.326;12.370;2022-10-04T12:05:39;20.94;54.77
71436;SHT31;59251;51.326;12.370;2022-10-04T12:11:40;20.77;54.17
71436;SHT31;59251;51.326;12.370;2022-10-04T12:14:47;22.49;51.42
71436;SHT31;59251;51.326;12.370;2022-10-04T12:17:56;20.55;54.70
71436;SHT31;59251;51.326;12.370;2022-10-04T12:32:41;22.13;51.80
71436;SHT31;59251;51.326;12.370;2022-10-04T12:35:25;21.92;51.74
71436;SHT31;59251;51.326;12.370;2022-10-04T12:38:17;22.13;52.02
71436;SHT31;59251;51.326;12.370;2022-10-04T12:49:11;22.85;47.82
71436;SHT31;59251;51.326;12.370;2022-10-04T12:51:56;22.52;50.28
71436;SHT31;59251;51.326;12.370;2022-10-04T13:03:09;22.27;51.27
71436;SHT31;59251;51.326;12.370;2022-10-04T13:05:59;22.68;50.62
71436;SHT31;59251;51.326;12.370;2022-10-04T13:13:55;22.03;49.49
71436;SHT31;59251;51.326;12.370;2022-10-04T13:22:34;23.46;47.94
71436;SHT31;59251;51.326;12.370;2022-10-04T13:25:14;23.22;48.54
71436;SHT31;59251;51.326;12.370;2022-10-04T13:30:31;24.60;45.17
71436;SHT31;59251;51.326;12.370;2022-10-04T13:35:49;23.28;47.51
71436;SHT31;59251;51.326;12.370;2022-10-04T13:44:19;22.76;49.10
71436;SHT31;59251;51.326;12.370;2022-10-04T13:52:50;25.65;44.22
71436;SHT31;59251;51.326;12.370;2022-10-04T14:09:40;23.77;46.25
71436;SHT31;59251;51.326;12.370;2022-10-04T14:23:20;24.57;45.22
71436;SHT31;59251;51.326;12.370;2022-10-04T14:59:57;23.88;46.47
71436;SHT31;59251;51.326;12.370;2022-10-04T15:07:36;22.34;50.86
71436;SHT31;59251;51.326;12.370;2022-10-04T15:10:17;22.04;50.52
71436;SHT31;59251;51.326;12.370;2022-10-04T15:15:38;22.94;49.92
71436;SHT31;59251;51.326;12.370;2022-10-04T15:18:26;22.09;50.57
71436;SHT31;59251;51.326;12.370;2022-10-04T15:21:00;21.66;52.02
71436;SHT31;59251;51.326;12.370;2022-10-04T15:23:42;21.61;52.59
71436;SHT31;59251;51.326;12.370;2022-10-04T15:34:29;22.17;51.43
71436;SHT31;59251;51.326;12.370;2022-10-04T15:37:05;22.09;52.05
71436;SHT31;59251;51.326;12.370;2022-10-04T15:48:03;20.84;54.98
71436;SHT31;59251;51.326;12.370;2022-10-04T15:53:54;19.99;56.48
71436;SHT31;59251;51.326;12.370;2022-10-04T15:56:40;18.98;59.99
71436;SHT31;59251;51.326;12.370;2022-10-04T16:01:56;18.22;61.93
71436;SHT31;59251;51.326;12.370;2022-10-04T16:07:30;17.85;63.85
71436;SHT31;59251;51.326;12.370;2022-10-04T16:15:36;17.86;64.53
71436;SHT31;59251;51.326;12.370;2022-10-04T16:18:13;17.32;66.29
71436;SHT31;59251;51.326;12.370;2022-10-04T16:23:37;17.32;66.52
71436;SHT31;59251;51.326;12.370;2022-10-04T16:26:09;17.20;66.99
71436;SHT31;59251;51.326;12.370;2022-10-04T16:39:53;16.65;69.33
71436;SHT31;59251;51.326;12.370;2022-10-04T16:42:51;16.44;70.01
71436;SHT31;59251;51.326;12.370;2022-10-04T16:48:05;16.27;70.88
71436;SHT31;59251;51.326;12.370;2022-10-04T16:53:50;15.96;71.83
71436;SHT31;59251;51.326;12.370;2022-10-04T16:56:26;15.89;72.17
71436;SHT31;59251;51.326;12.370;2022-10-04T16:59:03;15.73;72.47
71436;SHT31;59251;51.326;12.370;2022-10-04T17:05:15;15.59;72.77
71436;SHT31;59251;51.326;12.370;2022-10-04T17:07:56;15.65;72.68
71436;SHT31;59251;51.326;12.370;2022-10-04T17:13:24;15.38;73.43
71436;SHT31;59251;51.326;12.370;2022-10-04T17:16:15;15.22;74.15
71436;SHT31;59251;51.326;12.370;2022-10-04T17:20:02;15.05;75.03
71436;SHT31;59251;51.326;12.370;2022-10-04T17:27:46;14.91;75.18
71436;SHT31;59251;51.326;12.370;2022-10-04T17:30:23;14.87;74.90
71436;SHT31;59251;51.326;12.370;2022-10-04T17:32:59;14.79;75.08
71436;SHT31;59251;51.326;12.370;2022-10-04T17:41:17;14.83;72.81
71436;SHT31;59251;51.326;12.370;2022-10-04T17:46:28;14.77;72.15
71436;SHT31;59251;51.326;12.370;2022-10-04T17:48:58;14.77;71.73
71436;SHT31;59251;51.326;12.370;2022-10-04T17:52:04;14.74;71.38
71436;SHT31;59251;51.326;12.370;2022-10-04T17:55:13;14.80;70.91
71436;SHT31;59251;51.326;12.370;2022-10-04T17:57:50;14.73;71.30
71436;SHT31;59251;51.326;12.370;2022-10-04T18:00:20;14.69;71.08
71436;SHT31;59251;51.326;12.370;2022-10-04T18:03:06;14.67;71.10
71436;SHT31;59251;51.326;12.370;2022-10-04T18:05:47;14.57;71.14
71436;SHT31;59251;51.326;12.370;2022-10-04T18:08:20;14.53;71.27
71436;SHT31;59251;51.326;12.370;2022-10-04T18:10:50;14.55;71.53
71436;SHT31;59251;51.326;12.370;2022-10-04T18:13:44;14.47;71.98
71436;SHT31;59251;51.326;12.370;2022-10-04T18:16:56;14.49;72.16
71436;SHT31;59251;51.326;12.370;2022-10-04T18:22:17;14.39;73.58
71436;SHT31;59251;51.326;12.370;2022-10-04T18:24:44;14.32;74.38
71436;SHT31;59251;51.326;12.370;2022-10-04T18:27:22;14.29;74.75
71436;SHT31;59251;51.326;12.370;2022-10-04T18:35:05;14.01;76.22
71436;SHT31;59251;51.326;12.370;2022-10-04T18:37:41;13.94;76.62
71436;SHT31;59251;51.326;12.370;2022-10-04T18:40:26;13.87;77.19
71436;SHT31;59251;51.326;12.370;2022-10-04T18:42:59;13.79;77.26
71436;SHT31;59251;51.326;12.370;2022-10-04T18:45:32;13.71;77.53
71436;SHT31;59251;51.326;12.370;2022-10-04T18:48:13;13.60;77.79
71436;SHT31;59251;51.326;12.370;2022-10-04T18:50:40;13.61;77.79
71436;SHT31;59251;51.326;12.370;2022-10-04T18:53:32;13.47;77.96
71436;SHT31;59251;51.326;12.370;2022-10-04T18:56:06;13.47;78.41
71436;SHT31;59251;51.326;12.370;2022-10-04T19:07:09;13.02;80.63
71436;SHT31;59251;51.326;12.370;2022-10-04T19:12:25;12.87;81.59
71436;SHT31;59251;51.326;12.370;2022-10-04T19:20:56;12.71;82.07
71436;SHT31;59251;51.326;12.370;2022-10-04T19:23:40;12.81;81.67
71436;SHT31;59251;51.326;12.370;2022-10-04T19:26:36;12.74;81.87
71436;SHT31;59251;51.326;12.370;2022-10-04T19:31:59;12.77;81.87
71436;SHT31;59251;51.326;12.370;2022-10-04T19:34:39;12.69;81.99
71436;SHT31;59251;51.326;12.370;2022-10-04T19:37:24;12.67;82.40
71436;SHT31;59251;51.326;12.370;2022-10-04T19:42:41;12.64;82.47
71436;SHT31;59251;51.326;12.370;2022-10-04T19:48:01;12.57;83.26
71436;SHT31;59251;51.326;12.370;2022-10-04T19:50:44;12.58;83.33
71436;SHT31;59251;51.326;12.370;2022-10-04T19:53:23;12.55;83.89
71436;SHT31;59251;51.326;12.370;2022-10-04T19:55:58;12.51;83.81
71436;SHT31;59251;51.326;12.370;2022-10-04T20:01:17;12.50;83.85
71436;SHT31;59251;51.326;12.370;2022-10-04T20:03:45;12.47;84.18
71436;SHT31;59251;51.326;12.370;2022-10-04T20:06:21;12.47;84.21
71436;SHT31;59251;51.326;12.370;2022-10-04T20:08:56;12.40;84.59
71436;SHT31;59251;51.326;12.370;2022-10-04T20:19:19;12.32;85.20
71436;SHT31;59251;51.326;12.370;2022-10-04T20:21:47;12.24;85.45
71436;SHT31;59251;51.326;12.370;2022-10-04T20:34:50;12.06;86.17
71436;SHT31;59251;51.326;12.370;2022-10-04T20:37:16;12.07;86.08
71436;SHT31;59251;51.326;12.370;2022-10-04T20:47:45;12.14;85.74
71436;SHT31;59251;51.326;12.370;2022-10-04T20:50:20;12.05;85.89
71436;SHT31;59251;51.326;12.370;2022-10-04T20:52:55;11.96;86.11
71436;SHT31;59251;51.326;12.370;2022-10-04T20:55:31;11.76;86.93
71436;SHT31;59251;51.326;12.370;2022-10-04T20:57:59;11.74;86.81
71436;SHT31;59251;51.326;12.370;2022-10-04T21:00:28;11.68;87.14
71436;SHT31;59251;51.326;12.370;2022-10-04T21:03:15;11.75;87.15
71436;SHT31;59251;51.326;12.370;2022-10-04T21:05:42;11.69;87.33
71436;SHT31;59251;51.326;12.370;2022-10-04T21:08:19;11.59;87.73
71436;SHT31;59251;51.326;12.370;2022-10-04T21:11:16;11.62;88.09
71436;SHT31;59251;51.326;12.370;2022-10-04T21:14:02;11.66;88.05
71436;SHT31;59251;51.326;12.370;2022-10-04T21:21:56;11.62;88.60
71436;SHT31;59251;51.326;12.370;2022-10-04T21:24:37;11.72;88.25
71436;SHT31;59251;51.326;12.370;2022-10-04T21:27:04;11.68;88.25
71436;SHT31;59251;51.326;12.370;2022-10-04T21:29:30;11.61;88.47
71436;SHT31;59251;51.326;12.370;2022-10-04T21:31:57;11.66;88.46
71436;SHT31;59251;51.326;12.370;2022-10-04T21:34:22;11.61;88.39
71436;SHT31;59251;51.326;12.370;2022-10-04T21:36:48;11.71;87.97
71436;SHT31;59251;51.326;12.370;2022-10-04T21:39:13;11.62;88.22
71436;SHT31;59251;51.326;12.370;2022-10-04T21:41:38;11.57;88.24
71436;SHT31;59251;51.326;12.370;2022-10-04T21:44:04;11.64;88.02
71436;SHT31;59251;51.326;12.370;2022-10-04T21:46:29;11.71;87.72
71436;SHT31;59251;51.326;12.370;2022-10-04T21:48:54;11.69;87.61
71436;SHT31;59251;51.326;12.370;2022-10-04T21:51:20;11.54;87.80
71436;SHT31;59251;51.326;12.370;2022-10-04T21:53:45;11.55;87.88
71436;SHT31;59251;51.326;12.370;2022-10-04T21:56:11;11.55;87.92
71436;SHT31;59251;51.326;12.370;2022-10-04T21:58:36;11.54;88.02
71436;SHT31;59251;51.326;12.370;2022-10-04T22:01:01;11.45;88.33
71436;SHT31;59251;51.326;12.370;2022-10-04T22:03:27;11.39;88.54
71436;SHT31;59251;51.326;12.370;2022-10-04T22:05:52;11.39;88.57
71436;SHT31;59251;51.326;12.370;2022-10-04T22:08:17;11.41;88.70
71436;SHT31;59251;51.326;12.370;2022-10-04T22:10:43;11.35;88.69
71436;SHT31;59251;51.326;12.370;2022-10-04T22:13:10;11.34;88.77
71436;SHT31;59251;51.326;12.370;2022-10-04T22:15:36;11.44;88.42
71436;SHT31;59251;51.326;12.370;2022-10-04T22:18:01;11.31;88.52
71436;SHT31;59251;51.326;12.370;2022-10-04T22:20:26;11.31;88.67
71436;SHT31;59251;51.326;12.370;2022-10-04T22:22:53;11.32;88.48
71436;SHT31;59251;51.326;12.370;2022-10-04T22:25:21;11.27;88.66
71436;SHT31;59251;51.326;12.370;2022-10-04T22:27:47;11.38;88.36
71436;SHT31;59251;51.326;12.370;2022-10-04T22:30:27;11.31;88.26
71436;SHT31;59251;51.326;12.370;2022-10-04T22:32:54;11.30;88.37
71436;SHT31;59251;51.326;12.370;2022-10-04T22:35:20;11.28;88.31
71436;SHT31;59251;51.326;12.370;2022-10-04T22:37:47;11.27;88.52
71436;SHT31;59251;51.326;12.370;2022-10-04T22:42:40;11.27;88.16
71436;SHT31;59251;51.326;12.370;2022-10-04T22:45:17;11.31;88.01
71436;SHT31;59251;51.326;12.370;2022-10-04T22:47:43;11.30;87.91
71436;SHT31;59251;51.326;12.370;2022-10-04T22:50:22;11.34;87.96
71436;SHT31;59251;51.326;12.370;2022-10-04T22:52:50;11.37;87.63
71436;SHT31;59251;51.326;12.370;2022-10-04T22:55:17;11.31;87.72
71436;SHT31;59251;51.326;12.370;2022-10-04T22:57:42;11.39;87.45
71436;SHT31;59251;51.326;12.370;2022-10-04T23:00:09;11.42;87.46
71436;SHT31;59251;51.326;12.370;2022-10-04T23:02:35;11.32;87.81
71436;SHT31;59251;51.326;12.370;2022-10-04T23:05:14;11.34;87.60
71436;SHT31;59251;51.326;12.370;2022-10-04T23:07:43;11.32;87.61
71436;SHT31;59251;51.326;12.370;2022-10-04T23:10:11;11.26;87.85
71436;SHT31;59251;51.326;12.370;2022-10-04T23:12:37;11.24;87.76
71436;SHT31;59251;51.326;12.370;2022-10-04T23:15:03;11.20;87.88
71436;SHT31;59251;51.326;12.370;2022-10-04T23:17:34;11.23;87.80
71436;SHT31;59251;51.326;12.370;2022-10-04T23:20:09;11.23;87.71
71436;SHT31;59251;51.326;12.370;2022-10-04T23:22:36;11.23;87.70
71436;SHT31;59251;51.326;12.370;2022-10-04T23:25:14;11.23;87.51
71436;SHT31;59251;51.326;12.370;2022-10-04T23:27:40;11.24;87.67
71436;SHT31;59251;51.326;12.370;2022-10-04T23:30:12;11.21;87.63
71436;SHT31;59251;51.326;12.370;2022-10-04T23:32:37;11.27;87.43
71436;SHT31;59251;51.326;12.370;2022-10-04T23:35:03;11.14;87.60
71436;SHT31;59251;51.326;12.370;2022-10-04T23:37:34;11.17;87.52
71436;SHT31;59251;51.326;12.370;2022-10-04T23:39:59;11.13;87.68
71436;SHT31;59251;51.326;12.370;2022-10-04T23:42:26;11.10;87.84
71436;SHT31;59251;51.326;12.370;2022-10-04T23:45:00;11.16;87.50
71436;SHT31;59251;51.326;12.370;2022-10-04T23:47:34;11.16;87.48
71436;SHT31;59251;51.326;12.370;2022-10-04T23:50:00;11.14;87.49
71436;SHT31;59251;51.326;12.370;2022-10-04T23:52:34;11.16;87.50
71436;SHT31;59251;51.326;12.370;2022-10-04T23:55:00;11.21;87.26
71436;SHT31;59251;51.326;12.370;2022-10-04T23:57:28;11.16;87.50
71436;SHT31;59251;51.326;12.370;2022-10-04T23:59:53;11.10;87.53
